createdAt,value
2018-03-06T00:01:13.933Z,67.50
2018-03-06T00:03:45.700Z,67.60
2018-03-06T00:06:17.083Z,67.70
2018-03-06T00:08:49.846Z,67.80
2018-03-06T00:11:21.284Z,67.70
2018-03-06T00:13:52.425Z,68.10
2018-03-06T00:16:23.942Z,68.00
2018-03-06T00:18:56.394Z,68.20
2018-03-06T00:21:27.990Z,68.20
2018-03-06T00:23:59.071Z,68.00
2018-03-06T00:26:30.490Z,68.00
2018-03-06T00:29:01.971Z,69.20
2018-03-06T00:31:33.669Z,66.90
2018-03-06T00:34:07.008Z,68.00
2018-03-06T00:36:38.128Z,67.90
2018-03-06T00:39:09.182Z,68.30
2018-03-06T00:41:40.216Z,68.30
2018-03-06T00:44:11.342Z,68.20
2018-03-06T00:46:43.163Z,68.10
2018-03-06T00:49:14.529Z,68.10
2018-03-06T00:51:46.179Z,68.00
2018-03-06T00:54:17.652Z,68.00
2018-03-06T00:56:48.477Z,67.90
2018-03-06T00:59:20.219Z,68.40
2018-03-06T01:01:53.052Z,68.30
2018-03-06T01:04:24.243Z,68.20
2018-03-06T01:06:55.607Z,68.40
2018-03-06T01:09:26.422Z,68.50
2018-03-06T01:11:57.883Z,68.40
2018-03-06T01:14:29.031Z,68.20
2018-03-06T01:16:59.852Z,67.90
2018-03-06T01:19:30.528Z,68.20
2018-03-06T01:22:01.730Z,68.50
2018-03-06T01:24:32.176Z,68.70
2018-03-06T01:27:03.474Z,68.50
2018-03-06T01:29:34.468Z,68.50
2018-03-06T01:32:06.766Z,68.30
2018-03-06T01:34:37.273Z,68.20
2018-03-06T01:37:08.416Z,68.20
2018-03-06T01:39:39.455Z,68.50
2018-03-06T01:42:10.578Z,68.40
2018-03-06T01:44:41.886Z,68.10
2018-03-06T01:47:12.518Z,68.00
2018-03-06T01:49:43.057Z,68.10
2018-03-06T01:52:13.557Z,68.10
2018-03-06T01:54:44.083Z,68.20
2018-03-06T01:57:14.784Z,68.00
2018-03-06T01:59:45.338Z,67.90
2018-03-06T02:02:16.665Z,67.80
2018-03-06T02:04:47.054Z,67.80
2018-03-06T02:07:18.416Z,68.00
2018-03-06T02:09:49.123Z,68.00
2018-03-06T02:12:19.659Z,68.20
2018-03-06T02:14:50.901Z,68.30
2018-03-06T02:17:21.545Z,68.30
2018-03-06T02:19:51.930Z,68.00
2018-03-06T02:22:22.540Z,67.90
2018-03-06T02:24:53.272Z,67.90
2018-03-06T02:27:23.516Z,68.10
2018-03-06T02:29:53.992Z,67.80
2018-03-06T02:32:24.362Z,68.10
2018-03-06T02:34:54.590Z,68.30
2018-03-06T02:37:25.835Z,67.10
2018-03-06T02:39:57.081Z,68.90
2018-03-06T02:42:28.161Z,68.90
2018-03-06T02:44:58.519Z,70.10
2018-03-06T02:47:29.581Z,69.20
2018-03-06T02:50:00.192Z,69.10
2018-03-06T02:52:30.891Z,69.20
2018-03-06T02:55:01.252Z,69.00
2018-03-06T02:57:31.923Z,69.20
2018-03-06T03:00:02.382Z,69.20
2018-03-06T03:02:33.424Z,68.70
2018-03-06T03:05:04.364Z,69.50
2018-03-06T03:07:34.576Z,70.00
2018-03-06T03:10:05.816Z,69.40
2018-03-06T03:12:36.110Z,69.30
2018-03-06T03:15:07.055Z,69.60
2018-03-06T03:17:37.896Z,69.50
2018-03-06T03:20:08.141Z,69.20
2018-03-06T03:22:38.570Z,69.40
2018-03-06T03:25:09.051Z,69.60
2018-03-06T03:27:39.248Z,69.50
2018-03-06T03:30:09.610Z,69.50
2018-03-06T03:32:39.812Z,69.50
2018-03-06T03:35:10.210Z,70.40
2018-03-06T03:37:41.325Z,69.70
2018-03-06T03:40:11.595Z,69.60
2018-03-06T03:42:41.765Z,69.40
2018-03-06T03:45:12.166Z,70.10
2018-03-06T03:47:42.508Z,69.50
2018-03-06T03:50:13.251Z,69.40
2018-03-06T03:52:43.577Z,69.20
2018-03-06T03:55:14.077Z,69.40
2018-03-06T03:57:44.771Z,69.60
2018-03-06T04:00:14.928Z,69.90
2018-03-06T04:02:46.934Z,70.20
2018-03-06T04:05:17.404Z,70.00
2018-03-06T04:07:48.406Z,70.80
2018-03-06T04:10:19.267Z,70.70
2018-03-06T04:12:49.633Z,71.00
2018-03-06T04:15:21.498Z,71.20
2018-03-06T04:17:52.235Z,71.30
2018-03-06T04:20:22.640Z,71.40
2018-03-06T04:22:52.949Z,71.60
2018-03-06T04:25:23.184Z,71.40
2018-03-06T04:27:53.530Z,71.50
2018-03-06T04:30:24.758Z,72.30
2018-03-06T04:32:55.627Z,71.50
2018-03-06T04:35:25.867Z,71.40
2018-03-06T04:37:55.951Z,71.20
2018-03-06T04:40:26.278Z,71.10
2018-03-06T04:42:56.797Z,71.30
2018-03-06T04:45:27.127Z,71.50
2018-03-06T04:47:57.725Z,71.40
2018-03-06T04:50:29.365Z,71.10
2018-03-06T04:52:59.588Z,71.10
2018-03-06T04:55:29.970Z,71.10
2018-03-06T04:58:00.546Z,70.90
2018-03-06T05:00:31.690Z,70.90
2018-03-06T05:03:03.638Z,70.90
2018-03-06T05:05:34.201Z,71.60
2018-03-06T05:08:05.279Z,70.90
2018-03-06T05:10:36.011Z,71.00
2018-03-06T05:13:06.358Z,71.20
2018-03-06T05:15:36.910Z,71.50
2018-03-06T05:18:07.843Z,71.40
2018-03-06T05:20:38.293Z,71.10
2018-03-06T05:23:08.783Z,71.40
2018-03-06T05:25:40.332Z,71.30
2018-03-06T05:28:11.418Z,71.40
2018-03-06T05:30:42.133Z,71.30
2018-03-06T05:33:13.961Z,71.50
2018-03-06T05:35:44.559Z,71.50
2018-03-06T05:38:15.985Z,71.40
2018-03-06T05:40:47.495Z,71.40
2018-03-06T05:43:18.788Z,71.40
2018-03-06T05:45:49.968Z,71.60
2018-03-06T05:48:22.255Z,71.70
2018-03-06T05:50:53.916Z,71.70
2018-03-06T05:53:25.431Z,71.70
2018-03-06T05:55:57.310Z,71.20
2018-03-06T05:58:29.332Z,71.20
2018-03-06T06:01:01.105Z,71.10
2018-03-06T06:03:32.536Z,70.90
2018-03-06T06:06:04.269Z,70.90
2018-03-06T06:08:35.717Z,71.10
2018-03-06T06:11:20.717Z,71.00
2018-03-06T06:13:52.173Z,71.00
2018-03-06T06:16:24.049Z,70.80
2018-03-06T06:18:56.116Z,70.90
2018-03-06T06:21:42.144Z,70.80
2018-03-06T06:24:40.061Z,70.70
2018-03-06T06:27:17.006Z,70.80
2018-03-06T06:29:50.021Z,70.70
2018-03-06T06:32:22.685Z,70.70
2018-03-06T06:34:55.270Z,70.70
2018-03-06T06:37:37.771Z,70.90
2018-03-06T06:40:11.706Z,70.80
2018-03-06T06:42:43.307Z,71.10
2018-03-06T06:45:15.106Z,71.10
2018-03-06T06:47:46.343Z,71.00
2018-03-06T06:50:18.024Z,70.80
2018-03-06T06:52:50.882Z,70.50
2018-03-06T06:55:22.461Z,70.40
2018-03-06T06:57:58.620Z,70.50
2018-03-06T07:00:35.167Z,70.40
2018-03-06T07:03:10.199Z,70.50
2018-03-06T07:05:41.627Z,70.50
2018-03-06T07:08:13.525Z,70.40
2018-03-06T07:10:45.083Z,70.50
2018-03-06T07:13:16.337Z,70.50
2018-03-06T07:15:51.376Z,70.70
2018-03-06T07:18:25.116Z,70.80
2018-03-06T07:20:57.925Z,69.80
2018-03-06T07:23:29.440Z,69.80
2018-03-06T07:26:01.131Z,69.10
2018-03-06T07:28:32.837Z,68.80
2018-03-06T07:31:04.984Z,69.00
2018-03-06T07:33:37.578Z,70.30
2018-03-06T07:36:11.446Z,69.40
2018-03-06T07:38:43.079Z,69.40
2018-03-06T07:41:14.688Z,69.60
2018-03-06T07:43:47.196Z,69.50
2018-03-06T07:46:19.530Z,69.20
2018-03-06T07:48:52.598Z,69.20
2018-03-06T07:51:24.118Z,68.90
2018-03-06T07:53:55.782Z,68.80
2018-03-06T07:56:34.379Z,68.80
2018-03-06T07:59:07.850Z,69.20
2018-03-06T08:01:42.260Z,68.90
2018-03-06T08:04:17.286Z,68.90
2018-03-06T08:07:08.559Z,68.90
2018-03-06T08:09:47.483Z,68.70
2018-03-06T08:12:20.763Z,68.70
2018-03-06T08:14:54.362Z,68.60
2018-03-06T08:17:26.757Z,68.50
2018-03-06T08:20:02.940Z,68.40
2018-03-06T08:22:36.371Z,68.40
2018-03-06T08:25:10.312Z,68.30
2018-03-06T08:27:42.384Z,68.00
2018-03-06T08:30:15.053Z,67.80
2018-03-06T08:32:47.947Z,67.70
2018-03-06T08:35:19.374Z,67.60
2018-03-06T08:37:50.509Z,67.40
2018-03-06T08:40:23.049Z,67.30
2018-03-06T08:42:54.573Z,67.20
2018-03-06T08:45:27.334Z,66.40
2018-03-06T08:48:00.604Z,66.50
2018-03-06T08:50:35.529Z,66.10
2018-03-06T08:53:07.113Z,66.20
2018-03-06T08:55:42.712Z,66.10
2018-03-06T08:58:14.356Z,66.10
2018-03-06T09:00:46.751Z,66.10
2018-03-06T09:03:17.737Z,66.00
2018-03-06T09:05:49.877Z,67.40
2018-03-06T09:08:21.707Z,65.70
2018-03-06T09:10:53.083Z,65.70
2018-03-06T09:13:24.773Z,65.70
2018-03-06T09:15:56.106Z,65.70
2018-03-06T09:18:27.429Z,65.10
2018-03-06T09:20:59.235Z,65.80
2018-03-06T09:23:30.601Z,65.90
2018-03-06T09:26:02.228Z,65.80
2018-03-06T09:28:35.136Z,66.00
2018-03-06T09:31:07.831Z,66.10
2018-03-06T09:33:38.871Z,66.00
2018-03-06T09:36:13.822Z,66.20
2018-03-06T09:38:45.665Z,66.20
2018-03-06T09:41:20.437Z,66.10
2018-03-06T09:43:59.339Z,65.90
2018-03-06T09:46:31.621Z,65.90
2018-03-06T09:49:06.616Z,66.30
2018-03-06T09:51:40.685Z,66.00
2018-03-06T09:54:12.891Z,65.40
2018-03-06T09:57:03.339Z,65.80
2018-03-06T09:59:39.819Z,65.80
2018-03-06T10:02:11.954Z,66.00
2018-03-06T10:04:47.150Z,65.80
2018-03-06T10:07:21.118Z,65.60
2018-03-06T10:09:53.610Z,65.60
2018-03-06T10:12:25.345Z,64.40
2018-03-06T10:17:38.729Z,63.40
2018-03-06T10:20:13.408Z,62.90
2018-03-06T10:23:01.272Z,62.90
2018-03-06T10:25:35.129Z,62.90
2018-03-06T10:28:06.868Z,62.40
2018-03-06T10:30:55.722Z,61.30
2018-03-06T10:33:31.816Z,60.30
2018-03-06T10:36:06.533Z,60.40
2018-03-06T10:38:41.880Z,60.30
2018-03-06T10:41:14.925Z,59.80
2018-03-06T10:43:46.240Z,59.80
2018-03-06T10:46:18.485Z,60.50
2018-03-06T10:48:50.001Z,59.60
2018-03-06T10:51:24.204Z,60.20
2018-03-06T10:54:03.489Z,59.60
2018-03-06T10:56:38.169Z,59.60
2018-03-06T10:59:11.839Z,59.70
2018-03-06T11:02:13.293Z,59.40
2018-03-06T11:04:45.037Z,59.30
2018-03-06T11:10:04.083Z,59.10
2018-03-06T11:12:35.244Z,59.20
2018-03-06T11:15:22.554Z,58.90
2018-03-06T11:17:55.270Z,58.20
2018-03-06T11:20:28.618Z,58.10
2018-03-06T11:23:02.768Z,57.90
2018-03-06T11:25:48.802Z,57.80
2018-03-06T11:31:07.327Z,55.60
2018-03-06T11:33:41.822Z,55.00
2018-03-06T11:36:19.081Z,53.70
2018-03-06T11:45:05.071Z,53.40
2018-03-06T11:50:51.022Z,52.90
2018-03-06T11:54:01.471Z,51.50
2018-03-06T11:56:59.031Z,53.40
2018-03-06T11:59:43.283Z,52.70
2018-03-06T12:08:17.011Z,51.60
2018-03-06T12:16:54.816Z,54.60
2018-03-06T12:19:25.875Z,55.20
2018-03-06T12:22:01.032Z,55.40
2018-03-06T12:24:36.062Z,55.90
2018-03-06T12:27:07.842Z,55.90
2018-03-06T12:29:42.153Z,55.80
2018-03-06T12:32:21.083Z,55.20
2018-03-06T12:37:38.809Z,55.50
2018-03-06T12:40:12.999Z,55.50
2018-03-06T12:43:04.431Z,55.20
2018-03-06T12:46:14.323Z,56.10
2018-03-06T12:48:45.543Z,55.40
2018-03-06T12:51:18.496Z,55.50
2018-03-06T12:53:51.699Z,55.80
2018-03-06T12:56:23.347Z,56.00
2018-03-06T12:58:55.561Z,56.50
2018-03-06T13:01:29.418Z,56.50
2018-03-06T13:04:16.201Z,56.30
2018-03-06T13:06:57.457Z,56.50
2018-03-06T13:09:29.079Z,56.60
2018-03-06T13:12:14.133Z,57.00
2018-03-06T13:17:31.299Z,57.60
2018-03-06T13:20:02.958Z,57.80
2018-03-06T13:22:34.436Z,58.00
2018-03-06T13:25:07.240Z,58.30
2018-03-06T13:27:39.461Z,58.50
2018-03-06T13:30:16.234Z,58.70
2018-03-06T13:32:51.366Z,60.30
2018-03-06T13:35:24.796Z,59.10
2018-03-06T13:38:04.218Z,59.40
2018-03-06T13:43:39.238Z,59.00
2018-03-06T13:46:14.979Z,58.30
2018-03-06T13:48:53.136Z,57.80
2018-03-06T13:51:27.356Z,57.90
2018-03-06T13:54:14.709Z,57.60
2018-03-06T13:59:38.054Z,57.70
2018-03-06T14:02:14.515Z,58.10
2018-03-06T14:05:02.811Z,58.00
2018-03-06T14:07:35.661Z,57.80
2018-03-06T14:10:07.374Z,57.80
2018-03-06T14:12:39.768Z,57.80
2018-03-06T14:15:11.343Z,57.80
2018-03-06T14:17:58.317Z,57.90
2018-03-06T14:20:32.033Z,57.80
2018-03-06T14:23:06.232Z,57.80
2018-03-06T14:25:42.331Z,57.90
2018-03-06T14:28:13.770Z,57.50
2018-03-06T14:30:44.821Z,57.40
2018-03-06T14:33:21.715Z,57.60
2018-03-06T14:35:55.068Z,57.60
2018-03-06T14:38:30.400Z,57.40
2018-03-06T14:41:18.078Z,57.30
2018-03-06T14:43:55.116Z,57.30
2018-03-06T14:49:21.278Z,57.30
2018-03-06T14:51:56.586Z,57.40
2018-03-06T14:58:18.067Z,57.20
2018-03-06T15:00:50.063Z,57.10
2018-03-06T15:03:26.640Z,56.80
2018-03-06T15:05:59.684Z,56.40
2018-03-06T15:08:33.416Z,57.20
2018-03-06T15:11:05.941Z,57.30
2018-03-06T15:13:39.741Z,56.30
2018-03-06T15:16:16.456Z,58.50
2018-03-06T15:18:50.232Z,58.50
2018-03-06T15:21:26.589Z,59.80
2018-03-06T15:24:01.841Z,58.70
2018-03-06T15:26:37.723Z,58.80
2018-03-06T15:29:12.307Z,58.80
2018-03-06T15:31:48.126Z,58.80
2018-03-06T15:34:20.116Z,59.00
2018-03-06T15:36:53.171Z,59.80
2018-03-06T15:39:25.497Z,59.50
2018-03-06T15:41:57.755Z,59.60
2018-03-06T15:44:30.189Z,59.60
2018-03-06T15:47:01.642Z,59.70
2018-03-06T15:49:35.297Z,60.10
2018-03-06T15:52:07.027Z,60.00
2018-03-06T15:54:38.696Z,60.00
2018-03-06T15:57:10.536Z,60.00
2018-03-06T15:59:43.319Z,60.10
2018-03-06T16:02:14.516Z,60.10
2018-03-06T16:04:45.844Z,60.00
2018-03-06T16:07:20.990Z,60.00
2018-03-06T16:09:53.855Z,60.00
2018-03-06T16:12:30.974Z,60.50
2018-03-06T16:15:07.997Z,60.50
2018-03-06T16:17:38.850Z,60.40
2018-03-06T16:20:11.155Z,60.80
2018-03-06T16:22:46.925Z,60.80
2018-03-06T16:25:28.272Z,60.80
2018-03-06T16:27:59.886Z,61.10
2018-03-06T16:30:36.426Z,61.20
2018-03-06T16:33:48.795Z,61.40
2018-03-06T16:39:24.750Z,61.80
2018-03-06T16:42:11.765Z,61.90
2018-03-06T16:44:42.895Z,61.90
2018-03-06T16:47:15.326Z,61.80
2018-03-06T16:49:48.498Z,61.90
2018-03-06T16:52:28.006Z,62.20
2018-03-06T16:55:02.241Z,62.20
2018-03-06T16:57:36.724Z,62.30
2018-03-06T17:00:33.114Z,62.40
2018-03-06T17:03:05.052Z,62.60
2018-03-06T17:05:36.453Z,63.00
2018-03-06T17:08:09.776Z,63.90
2018-03-06T17:10:43.465Z,63.80
2018-03-06T17:13:26.095Z,64.10
2018-03-06T17:16:01.425Z,65.80
2018-03-06T17:18:33.471Z,64.80
2018-03-06T17:21:16.904Z,65.20
2018-03-06T17:24:00.380Z,65.50
2018-03-06T17:26:33.553Z,66.00
2018-03-06T17:29:05.063Z,66.00
2018-03-06T17:31:36.122Z,66.50
2018-03-06T17:34:07.096Z,66.60
2018-03-06T17:36:48.642Z,66.60
2018-03-06T17:39:22.313Z,66.70
2018-03-06T17:41:53.272Z,66.50
2018-03-06T17:44:30.830Z,66.60
2018-03-06T17:47:04.441Z,66.00
2018-03-06T17:49:39.040Z,66.00
2018-03-06T17:52:11.367Z,66.00
2018-03-06T17:54:42.394Z,66.00
2018-03-06T17:57:14.193Z,66.30
2018-03-06T17:59:45.137Z,66.30
2018-03-06T18:02:16.039Z,68.30
2018-03-06T18:04:47.334Z,66.50
2018-03-06T18:07:22.027Z,66.30
2018-03-06T18:10:09.586Z,66.70
2018-03-06T18:12:40.886Z,66.00
2018-03-06T18:15:16.031Z,66.40
2018-03-06T18:17:46.971Z,66.60
2018-03-06T18:20:19.982Z,66.60
2018-03-06T18:22:51.035Z,66.80
2018-03-06T18:25:23.464Z,66.90
2018-03-06T18:27:55.495Z,67.20
2018-03-06T18:30:27.704Z,67.30
2018-03-06T18:33:09.270Z,67.30
2018-03-06T18:35:46.900Z,67.30
2018-03-06T18:38:18.052Z,67.30
2018-03-06T18:40:51.017Z,67.60
2018-03-06T18:43:21.775Z,67.80
2018-03-06T18:45:57.290Z,68.00
2018-03-06T18:48:30.058Z,68.40
2018-03-06T18:51:22.158Z,68.40
2018-03-06T18:53:55.917Z,68.40
2018-03-06T18:56:27.087Z,69.10
2018-03-06T18:58:59.435Z,68.70
2018-03-06T19:01:41.370Z,68.80
2018-03-06T19:04:25.466Z,68.90
2018-03-06T19:07:11.794Z,69.10
2018-03-06T19:09:46.737Z,69.00
2018-03-06T19:12:20.665Z,69.10
2018-03-06T19:14:52.597Z,69.30
2018-03-06T19:17:41.055Z,69.20
2018-03-06T19:20:18.600Z,69.50
2018-03-06T19:22:53.957Z,69.50
2018-03-06T19:25:25.949Z,69.80
2018-03-06T19:27:58.609Z,69.80
2018-03-06T19:30:30.430Z,69.80
2018-03-06T19:33:02.355Z,69.50
2018-03-06T19:35:35.007Z,69.10
2018-03-06T19:38:06.703Z,69.10
2018-03-06T19:40:37.940Z,69.40
2018-03-06T19:43:14.415Z,69.80
2018-03-06T19:45:45.430Z,70.40
2018-03-06T19:48:17.881Z,71.40
2018-03-06T19:50:51.291Z,71.60
2018-03-06T19:53:25.708Z,72.00
2018-03-06T19:55:56.776Z,71.80
2018-03-06T19:58:30.644Z,71.90
2018-03-06T20:01:05.111Z,73.90
2018-03-06T20:06:23.854Z,73.90
2018-03-06T20:08:55.012Z,74.20
2018-03-06T20:11:31.085Z,74.80
2018-03-06T20:14:02.515Z,75.10
2018-03-06T20:16:37.389Z,74.80
2018-03-06T20:19:12.679Z,74.70
2018-03-06T20:21:45.174Z,74.30
2018-03-06T20:24:20.400Z,74.30
2018-03-06T20:26:51.684Z,74.30
2018-03-06T20:29:25.365Z,73.10
2018-03-06T20:34:05.098Z,74.10
2018-03-06T20:36:39.173Z,73.70
2018-03-06T20:40:17.905Z,73.50
2018-03-06T20:42:50.357Z,73.60
2018-03-06T20:45:22.486Z,73.60
2018-03-06T20:47:56.834Z,73.40
2018-03-06T20:50:30.868Z,73.50
2018-03-06T20:53:07.321Z,73.30
2018-03-06T20:55:38.522Z,73.20
2018-03-06T20:58:12.738Z,73.20
2018-03-06T21:00:44.948Z,73.20
2018-03-06T21:03:17.706Z,73.10
2018-03-06T21:05:49.412Z,73.20
2018-03-06T21:08:23.784Z,73.30
2018-03-06T21:10:55.040Z,74.10
2018-03-06T21:13:26.552Z,74.20
2018-03-06T21:15:58.335Z,74.40
2018-03-06T21:18:34.455Z,74.00
2018-03-06T21:21:07.195Z,74.40
2018-03-06T21:23:39.447Z,74.30
2018-03-06T21:26:12.501Z,74.40
2018-03-06T21:28:47.912Z,74.10
2018-03-06T21:31:19.849Z,74.10
2018-03-06T21:33:52.963Z,73.80
2018-03-06T21:36:26.810Z,73.40
2018-03-06T21:38:59.143Z,73.90
2018-03-06T21:41:32.197Z,73.80
2018-03-06T21:44:03.993Z,73.60
2018-03-06T21:46:37.274Z,73.30
2018-03-06T21:49:09.241Z,73.30
2018-03-06T21:51:40.534Z,73.30
2018-03-06T21:54:13.251Z,73.10
2018-03-06T21:56:45.843Z,73.30
2018-03-06T21:59:17.033Z,73.10
2018-03-06T22:01:49.615Z,72.90
2018-03-06T22:04:21.475Z,73.00
2018-03-06T22:06:53.442Z,72.80
2018-03-06T22:09:25.696Z,72.70
2018-03-06T22:11:56.913Z,72.70
2018-03-06T22:14:30.974Z,72.60
2018-03-06T22:17:03.948Z,72.70
2018-03-06T22:19:40.456Z,72.80
2018-03-06T22:22:15.136Z,72.80
2018-03-06T22:24:47.228Z,73.00
2018-03-06T22:27:24.984Z,72.80
2018-03-06T22:30:01.128Z,73.80
2018-03-06T22:32:33.727Z,73.80
2018-03-06T22:35:05.966Z,73.80
2018-03-06T22:37:37.764Z,73.80
2018-03-06T22:40:10.617Z,74.00
2018-03-06T22:42:42.794Z,73.60
2018-03-06T22:45:15.455Z,74.00
2018-03-06T22:47:48.350Z,73.90
2018-03-06T22:50:19.620Z,73.60
2018-03-06T22:55:34.459Z,73.80
2018-03-06T22:58:06.648Z,73.70
2018-03-06T23:00:38.616Z,73.60
2018-03-06T23:03:10.665Z,73.50
2018-03-06T23:05:42.002Z,72.50
2018-03-06T23:08:13.862Z,73.20
2018-03-06T23:10:46.747Z,73.10
2018-03-06T23:13:20.624Z,73.10
2018-03-06T23:15:54.375Z,73.00
2018-03-06T23:18:29.675Z,73.00
2018-03-06T23:21:05.275Z,72.70
2018-03-06T23:23:38.441Z,72.50
2018-03-06T23:26:11.241Z,72.40
2018-03-06T23:28:45.719Z,72.20
2018-03-06T23:31:19.129Z,72.30
2018-03-06T23:33:52.119Z,72.20
2018-03-06T23:36:25.230Z,72.10
2018-03-06T23:39:01.459Z,72.00
2018-03-06T23:41:32.924Z,72.10
2018-03-06T23:44:04.157Z,71.90
2018-03-06T23:46:36.403Z,72.10
2018-03-06T23:49:08.459Z,71.90
2018-03-06T23:51:40.951Z,72.00
2018-03-06T23:54:12.999Z,71.90
2018-03-06T23:56:46.131Z,71.60
2018-03-06T23:59:17.594Z,71.50
